createdAt,value
2023-03-22T00:02:30.876Z,96618.31
2023-03-22T00:05:01.684Z,96629.59
2023-03-22T00:07:33.643Z,96631.34
2023-03-22T00:10:04.645Z,96631.94
2023-03-22T00:12:37.829Z,96635.94
2023-03-22T00:15:11.554Z,96629.63
2023-03-22T00:17:42.329Z,96631.88
2023-03-22T00:20:14.298Z,96614.97
2023-03-22T00:22:45.115Z,96630.28
2023-03-22T00:25:15.914Z,96621.50
2023-03-22T00:27:49.101Z,96625.09
2023-03-22T00:30:20.038Z,96622.75
2023-03-22T00:32:50.782Z,96618.75
2023-03-22T00:35:21.736Z,96619.38
2023-03-22T00:37:52.497Z,96612.25
2023-03-22T00:40:23.458Z,96619.38
2023-03-22T00:42:56.829Z,96620.00
2023-03-22T00:45:27.602Z,96604.34
2023-03-22T00:47:58.480Z,96613.59
2023-03-22T00:50:29.253Z,96618.91
2023-03-22T00:53:00.126Z,96618.59
2023-03-22T00:55:30.786Z,96630.28
2023-03-22T00:58:04.209Z,96613.69
2023-03-22T01:00:34.967Z,96609.25
2023-03-22T01:03:05.935Z,96606.78
2023-03-22T01:05:37.535Z,96608.97
2023-03-22T01:08:09.474Z,96613.47
2023-03-22T01:10:41.971Z,96610.19
2023-03-22T01:13:17.847Z,96602.28
2023-03-22T01:15:49.858Z,96600.50
2023-03-22T01:18:20.822Z,96605.63
2023-03-22T01:20:51.566Z,96606.53
2023-03-22T01:23:22.530Z,96608.44
2023-03-22T01:25:53.726Z,96611.16
2023-03-22T01:28:27.496Z,96604.47
2023-03-22T01:30:58.855Z,96596.91
2023-03-22T01:33:30.032Z,96596.59
2023-03-22T01:36:01.508Z,96595.03
2023-03-22T01:38:33.074Z,96585.66
2023-03-22T01:41:05.150Z,96595.72
2023-03-22T01:43:42.507Z,96583.66
2023-03-22T01:46:13.736Z,96586.13
2023-03-22T01:48:47.072Z,96594.38
2023-03-22T01:51:21.837Z,96577.97
2023-03-22T01:54:13.845Z,96588.66
2023-03-22T01:56:45.544Z,96586.44
2023-03-22T01:59:28.092Z,96580.91
2023-03-22T02:02:19.164Z,96583.22
2023-03-22T02:04:58.371Z,96584.84
2023-03-22T02:07:33.358Z,96587.13
2023-03-22T02:10:06.175Z,96582.00
2023-03-22T02:13:02.305Z,96580.78
2023-03-22T02:16:06.895Z,96571.16
2023-03-22T02:19:17.197Z,96586.91
2023-03-22T02:22:15.909Z,96586.72
2023-03-22T02:25:26.756Z,96579.16
2023-03-22T02:28:17.545Z,96590.41
2023-03-22T02:31:18.007Z,96584.25
2023-03-22T02:34:38.831Z,96583.44
2023-03-22T02:37:42.820Z,96584.47
2023-03-22T02:40:20.996Z,96581.16
2023-03-22T02:43:03.272Z,96580.53
2023-03-22T02:45:37.996Z,96594.47
2023-03-22T02:48:14.411Z,96591.19
2023-03-22T02:50:49.695Z,96593.63
2023-03-22T02:53:24.532Z,96603.06
2023-03-22T02:56:01.614Z,96592.13
2023-03-22T02:58:38.537Z,96608.97
2023-03-22T03:01:13.372Z,96601.34
2023-03-22T03:03:48.377Z,96610.53
2023-03-22T03:06:22.129Z,96609.75
2023-03-22T03:08:54.212Z,96619.75
2023-03-22T03:11:28.272Z,96639.78
2023-03-22T03:13:59.375Z,96637.06
2023-03-22T03:16:35.299Z,96655.31
2023-03-22T03:19:13.313Z,96623.91
2023-03-22T03:21:53.871Z,96602.00
2023-03-22T03:24:32.992Z,96591.09
2023-03-22T03:27:11.532Z,96590.66
2023-03-22T03:29:45.623Z,96590.78
2023-03-22T03:32:25.902Z,96585.94
2023-03-22T03:35:01.844Z,96586.53
2023-03-22T03:37:39.612Z,96588.91
2023-03-22T03:40:15.144Z,96589.28
2023-03-22T03:42:51.926Z,96571.22
2023-03-22T03:45:23.506Z,96561.16
2023-03-22T03:47:57.337Z,96566.75
2023-03-22T03:50:29.849Z,96595.84
2023-03-22T03:53:01.968Z,96594.38
2023-03-22T03:55:33.862Z,96597.22
2023-03-22T03:58:09.326Z,96606.84
2023-03-22T04:00:40.303Z,96592.28
2023-03-22T04:03:34.610Z,96612.84
2023-03-22T04:06:24.635Z,96610.78
2023-03-22T04:08:59.743Z,96595.41
2023-03-22T04:11:34.773Z,96588.72
2023-03-22T04:14:09.591Z,96608.41
2023-03-22T04:16:41.614Z,96611.72
2023-03-22T04:19:15.645Z,96607.00
2023-03-22T04:21:46.587Z,96601.50
2023-03-22T04:24:18.039Z,96605.38
2023-03-22T04:26:53.787Z,96609.66
2023-03-22T04:29:56.756Z,96608.03
2023-03-22T04:32:45.813Z,96610.69
2023-03-22T04:35:17.736Z,96601.78
2023-03-22T04:37:49.112Z,96610.88
2023-03-22T04:40:23.464Z,96621.06
2023-03-22T04:43:06.789Z,96621.88
2023-03-22T04:45:58.520Z,96621.63
2023-03-22T04:48:36.465Z,96630.06
2023-03-22T04:51:08.205Z,96633.72
2023-03-22T04:53:45.219Z,96642.72
2023-03-22T04:56:17.981Z,96642.09
2023-03-22T04:58:49.647Z,96651.28
2023-03-22T05:01:23.324Z,96653.72
2023-03-22T05:04:02.826Z,96662.72
2023-03-22T05:06:33.790Z,96663.56
2023-03-22T05:09:11.960Z,96669.69
2023-03-22T05:11:43.611Z,96659.97
2023-03-22T05:14:47.005Z,96675.41
2023-03-22T05:17:24.143Z,96681.34
2023-03-22T05:19:57.988Z,96680.34
2023-03-22T05:22:29.739Z,96687.97
2023-03-22T05:25:02.023Z,96690.44
2023-03-22T05:27:35.195Z,96690.06
2023-03-22T05:30:26.089Z,96682.72
2023-03-22T05:33:07.831Z,96696.47
2023-03-22T05:35:44.763Z,96686.50
2023-03-22T05:38:15.845Z,96685.47
2023-03-22T05:40:51.446Z,96670.25
2023-03-22T05:43:23.018Z,96688.56
2023-03-22T05:45:54.728Z,96693.09
2023-03-22T05:48:53.838Z,96693.28
2023-03-22T05:51:26.020Z,96691.63
2023-03-22T05:53:57.970Z,96695.50
2023-03-22T05:56:36.365Z,96703.09
2023-03-22T05:59:10.224Z,96715.41
2023-03-22T06:01:41.472Z,96719.72
2023-03-22T06:04:28.640Z,96728.06
2023-03-22T06:07:06.218Z,96732.09
2023-03-22T06:09:50.513Z,96735.75
2023-03-22T06:12:27.742Z,96722.38
2023-03-22T06:15:06.020Z,96728.53
2023-03-22T06:17:49.100Z,96738.44
2023-03-22T06:20:27.474Z,96740.72
2023-03-22T06:23:04.571Z,96752.00
2023-03-22T06:25:35.802Z,96751.66
2023-03-22T06:28:08.704Z,96747.34
2023-03-22T06:30:41.927Z,96756.03
2023-03-22T06:33:18.935Z,96762.84
2023-03-22T06:35:59.214Z,96754.84
2023-03-22T06:38:36.334Z,96774.31
2023-03-22T06:41:07.326Z,96771.38
2023-03-22T06:43:38.126Z,96780.00
2023-03-22T06:46:26.652Z,96771.38
2023-03-22T06:49:08.214Z,96752.28
2023-03-22T06:51:41.761Z,96765.22
2023-03-22T06:54:13.519Z,96772.28
2023-03-22T06:56:44.497Z,96779.25
2023-03-22T06:59:15.456Z,96774.13
2023-03-22T07:01:46.139Z,96779.47
2023-03-22T07:04:17.311Z,96781.09
2023-03-22T07:06:53.248Z,96794.31
2023-03-22T07:09:27.717Z,96795.63
2023-03-22T07:12:01.895Z,96790.91
2023-03-22T07:14:33.236Z,96786.59
2023-03-22T07:17:19.551Z,96791.84
2023-03-22T07:19:50.444Z,96790.25
2023-03-22T07:22:25.144Z,96778.13
2023-03-22T07:24:59.981Z,96788.69
2023-03-22T07:27:34.234Z,96798.41
2023-03-22T07:30:04.887Z,96798.22
2023-03-22T07:32:39.225Z,96808.50
2023-03-22T07:35:13.867Z,96798.69
2023-03-22T07:37:48.654Z,96814.09
2023-03-22T07:40:27.434Z,96805.50
2023-03-22T07:42:59.378Z,96814.56
2023-03-22T07:46:05.278Z,96809.50
2023-03-22T07:49:02.479Z,96796.63
2023-03-22T07:51:51.305Z,96803.88
2023-03-22T07:54:33.572Z,96809.84
2023-03-22T07:57:07.012Z,96810.28
2023-03-22T07:59:42.188Z,96796.53
2023-03-22T08:02:13.657Z,96803.75
2023-03-22T08:04:53.170Z,96812.41
2023-03-22T08:07:45.708Z,96805.03
2023-03-22T08:10:20.501Z,96804.66
2023-03-22T08:12:51.539Z,96799.94
2023-03-22T08:15:26.850Z,96804.06
2023-03-22T08:17:59.205Z,96784.13
2023-03-22T08:20:38.570Z,96792.38
2023-03-22T08:23:17.094Z,96803.06
2023-03-22T08:26:09.915Z,96805.53
2023-03-22T08:28:41.241Z,96806.19
2023-03-22T08:31:16.603Z,96808.03
2023-03-22T08:33:49.647Z,96793.66
2023-03-22T08:36:22.998Z,96800.28
2023-03-22T08:39:01.970Z,96801.94
2023-03-22T08:41:56.496Z,96799.91
2023-03-22T08:44:30.006Z,96785.94
2023-03-22T08:47:06.367Z,96798.75
2023-03-22T08:49:38.024Z,96787.31
2023-03-22T08:52:16.384Z,96793.19
2023-03-22T08:55:00.106Z,96792.84
2023-03-22T08:57:53.891Z,96784.53
2023-03-22T09:00:49.720Z,96792.22
2023-03-22T09:03:35.748Z,96790.38
2023-03-22T09:06:07.215Z,96798.06
2023-03-22T09:08:41.717Z,96799.38
2023-03-22T09:11:17.998Z,96796.94
2023-03-22T09:13:54.277Z,96799.06
2023-03-22T09:16:25.284Z,96800.56
2023-03-22T09:18:56.255Z,96807.16
2023-03-22T09:21:30.068Z,96807.38
2023-03-22T09:24:19.411Z,96804.94
2023-03-22T09:26:55.699Z,96812.34
2023-03-22T09:29:29.461Z,96811.91
2023-03-22T09:32:01.376Z,96812.31
2023-03-22T09:34:35.900Z,96803.63
2023-03-22T09:37:07.928Z,96797.34
2023-03-22T09:39:47.189Z,96803.91
2023-03-22T09:42:33.597Z,96798.16
2023-03-22T09:45:15.585Z,96811.16
2023-03-22T09:47:49.598Z,96811.41
2023-03-22T09:50:24.279Z,96809.78
2023-03-22T09:52:55.762Z,96811.06
2023-03-22T09:55:42.987Z,96808.84
2023-03-22T09:58:25.441Z,96809.47
2023-03-22T10:01:01.830Z,96814.88
2023-03-22T10:03:56.375Z,96809.19
2023-03-22T10:06:29.433Z,96809.25
2023-03-22T10:09:10.157Z,96799.00
2023-03-22T10:11:48.633Z,96803.59
2023-03-22T10:14:30.934Z,96808.13
2023-03-22T10:17:08.536Z,96805.69
2023-03-22T10:19:46.522Z,96807.56
2023-03-22T10:22:20.562Z,96806.72
2023-03-22T10:24:54.166Z,96804.44
2023-03-22T10:27:27.080Z,96795.16
2023-03-22T10:30:03.099Z,96790.44
2023-03-22T10:32:57.170Z,96793.50
2023-03-22T10:35:28.982Z,96788.56
2023-03-22T10:38:01.936Z,96790.00
2023-03-22T10:40:34.842Z,96781.97
2023-03-22T10:43:09.655Z,96788.75
2023-03-22T10:45:40.643Z,96782.97
2023-03-22T10:48:20.433Z,96783.00
2023-03-22T10:50:51.549Z,96780.97
2023-03-22T10:53:37.766Z,96782.19
2023-03-22T10:56:14.606Z,96776.00
2023-03-22T10:58:45.452Z,96783.22
2023-03-22T11:01:18.532Z,96782.38
2023-03-22T11:03:56.063Z,96781.97
2023-03-22T11:06:30.151Z,96771.44
2023-03-22T11:09:02.841Z,96780.06
2023-03-22T11:11:38.076Z,96778.41
2023-03-22T11:14:10.115Z,96769.97
2023-03-22T11:16:47.650Z,96771.19
2023-03-22T11:19:27.612Z,96774.47
2023-03-22T11:21:59.379Z,96769.69
2023-03-22T11:24:31.903Z,96777.53
2023-03-22T11:27:08.338Z,96762.50
2023-03-22T11:29:45.512Z,96764.34
2023-03-22T11:32:29.724Z,96770.16
2023-03-22T11:35:14.448Z,96770.53
2023-03-22T11:37:46.220Z,96764.34
2023-03-22T11:40:19.424Z,96765.38
2023-03-22T11:42:52.588Z,96750.94
2023-03-22T11:45:30.020Z,96761.66
2023-03-22T11:48:06.229Z,96755.69
2023-03-22T11:50:42.185Z,96761.63
2023-03-22T11:53:18.211Z,96758.53
2023-03-22T11:55:51.676Z,96756.03
2023-03-22T11:58:30.647Z,96754.00
2023-03-22T12:01:05.261Z,96753.84
2023-03-22T12:03:39.830Z,96743.34
2023-03-22T12:06:24.032Z,96745.59
2023-03-22T12:08:59.798Z,96752.84
2023-03-22T12:11:35.708Z,96756.28
2023-03-22T12:14:10.171Z,96744.97
2023-03-22T12:16:47.868Z,96756.53
2023-03-22T12:19:30.917Z,96753.41
2023-03-22T12:22:04.915Z,96754.28
2023-03-22T12:24:36.099Z,96746.28
2023-03-22T12:27:16.237Z,96750.00
2023-03-22T12:29:50.861Z,96744.66
2023-03-22T12:32:25.726Z,96757.41
2023-03-22T12:35:09.204Z,96757.59
2023-03-22T12:37:49.680Z,96757.59
2023-03-22T12:40:25.901Z,96758.06
2023-03-22T12:43:05.834Z,96760.91
2023-03-22T12:45:42.877Z,96759.88
2023-03-22T12:48:21.048Z,96761.50
2023-03-22T12:50:56.364Z,96766.47
2023-03-22T12:53:31.310Z,96762.16
2023-03-22T12:56:03.068Z,96761.75
2023-03-22T12:58:33.746Z,96766.88
2023-03-22T13:01:19.597Z,96759.28
2023-03-22T13:03:53.943Z,96762.78
2023-03-22T13:06:37.642Z,96749.19
2023-03-22T13:09:18.676Z,96768.97
2023-03-22T13:11:53.209Z,96767.53
2023-03-22T13:14:56.329Z,96772.28
2023-03-22T13:17:44.868Z,96775.38
2023-03-22T13:20:31.961Z,96778.69
2023-03-22T13:23:15.024Z,96767.97
2023-03-22T13:26:18.355Z,96780.13
2023-03-22T13:28:59.125Z,96770.28
2023-03-22T13:31:42.793Z,96770.28
2023-03-22T13:34:19.726Z,96772.31
2023-03-22T13:36:58.486Z,96772.31
2023-03-22T13:39:35.101Z,96780.34
2023-03-22T13:42:12.701Z,96775.00
2023-03-22T13:44:47.182Z,96776.03
2023-03-22T13:47:37.394Z,96781.78
2023-03-22T13:50:19.183Z,96779.31
2023-03-22T13:53:00.716Z,96781.16
2023-03-22T13:56:06.277Z,96776.63
2023-03-22T13:58:53.818Z,96774.09
2023-03-22T14:01:35.347Z,96772.66
2023-03-22T14:04:11.032Z,96766.66
2023-03-22T14:06:52.223Z,96777.97
2023-03-22T14:09:29.167Z,96775.50
2023-03-22T14:12:07.210Z,96775.69
2023-03-22T14:14:47.270Z,96777.78
2023-03-22T14:17:28.228Z,96780.19
2023-03-22T14:20:00.096Z,96777.53
2023-03-22T14:53:33.360Z,96783.50
2023-03-22T14:56:08.515Z,96788.44
2023-03-22T14:58:42.142Z,96791.66
2023-03-22T15:01:19.510Z,96782.38
2023-03-22T15:03:56.426Z,96790.00
2023-03-22T15:06:28.640Z,96771.03
2023-03-22T15:09:06.959Z,96787.47
2023-03-22T15:11:40.254Z,96788.06
2023-03-22T15:14:15.358Z,96792.97
2023-03-22T15:16:52.573Z,96787.38
2023-03-22T15:19:26.017Z,96795.59
2023-03-22T15:22:07.061Z,96797.03
2023-03-22T15:24:40.851Z,96801.56
2023-03-22T15:27:15.694Z,96800.94
2023-03-22T15:29:47.316Z,96800.31
2023-03-22T15:32:23.293Z,96800.88
2023-03-22T15:34:56.334Z,96788.50
2023-03-22T15:37:32.058Z,96788.88
2023-03-22T15:40:05.134Z,96809.47
2023-03-22T15:42:40.177Z,96806.34
2023-03-22T15:45:17.762Z,96805.09
2023-03-22T15:47:54.921Z,96810.25
2023-03-22T15:50:27.518Z,96789.13
2023-03-22T15:53:00.688Z,96812.84
2023-03-22T15:55:38.058Z,96815.94
2023-03-22T15:58:22.317Z,96813.81
2023-03-22T16:00:54.249Z,96810.47
2023-03-22T16:03:44.531Z,96809.22
2023-03-22T16:06:15.870Z,96825.47
2023-03-22T16:08:46.893Z,96827.28
2023-03-22T16:11:18.142Z,96821.94
2023-03-22T16:13:48.894Z,96817.41
2023-03-22T16:16:24.101Z,96821.44
2023-03-22T16:18:58.958Z,96837.06
2023-03-22T16:21:34.356Z,96820.53
2023-03-22T16:24:10.390Z,96836.16
2023-03-22T16:26:41.913Z,96840.22
2023-03-22T16:29:12.808Z,96844.53
2023-03-22T16:31:47.897Z,96847.41
2023-03-22T16:34:24.414Z,96846.56
2023-03-22T16:36:55.981Z,96843.06
2023-03-22T16:39:27.410Z,96846.56
2023-03-22T16:41:58.136Z,96846.56
2023-03-22T16:44:31.889Z,96858.28
2023-03-22T16:47:03.662Z,96858.63
2023-03-22T16:49:37.234Z,96850.00
2023-03-22T16:52:09.465Z,96856.72
2023-03-22T16:54:40.755Z,96859.59
2023-03-22T16:57:16.526Z,96854.44
2023-03-22T16:59:47.563Z,96862.44
2023-03-22T17:02:21.609Z,96849.22
2023-03-22T17:04:55.004Z,96863.81
2023-03-22T17:07:28.294Z,96851.88
2023-03-22T17:09:59.077Z,96847.94
2023-03-22T17:12:32.362Z,96853.94
2023-03-22T17:15:03.678Z,96869.09
2023-03-22T17:17:35.294Z,96869.25
2023-03-22T17:20:10.022Z,96856.63
2023-03-22T17:22:41.106Z,96875.34
2023-03-22T17:25:18.319Z,96877.38
2023-03-22T17:27:49.955Z,96880.22
2023-03-22T17:30:21.498Z,96884.56
2023-03-22T17:35:34.389Z,96888.41
2023-03-22T17:38:05.488Z,96884.47
2023-03-22T17:40:45.796Z,96886.13
2023-03-22T17:43:21.959Z,96888.97
2023-03-22T17:46:27.040Z,96896.34
2023-03-22T17:48:43.508Z,96892.56
2023-03-22T17:51:17.653Z,96901.56
2023-03-22T17:54:30.821Z,96900.28
2023-03-22T17:57:08.814Z,96907.81
2023-03-22T17:59:31.679Z,96904.50
2023-03-22T18:02:02.425Z,96905.72
2023-03-22T18:04:33.363Z,96907.94
2023-03-22T18:07:07.035Z,96917.75
2023-03-22T18:09:38.415Z,96909.47
2023-03-22T18:12:09.889Z,96916.81
2023-03-22T18:14:41.242Z,96911.66
2023-03-22T18:17:13.599Z,96918.84
2023-03-22T18:20:04.067Z,96915.34
2023-03-22T18:22:38.533Z,96909.56
2023-03-22T18:25:11.687Z,96923.50
2023-03-22T18:27:47.683Z,96928.22
2023-03-22T18:30:21.835Z,96923.06
2023-03-22T18:33:05.696Z,96925.72
2023-03-22T18:35:43.236Z,96925.72
2023-03-22T18:38:34.017Z,96929.22
2023-03-22T18:41:34.553Z,96922.88
2023-03-22T18:44:02.583Z,96917.56
2023-03-22T18:46:35.370Z,96915.81
2023-03-22T18:49:06.567Z,96921.50
2023-03-22T18:54:12.314Z,96925.19
2023-03-22T18:56:43.085Z,96926.47
2023-03-22T18:59:14.027Z,96922.13
2023-03-22T19:01:48.665Z,96922.13
2023-03-22T19:04:27.890Z,96926.47
2023-03-22T19:07:01.155Z,96928.47
2023-03-22T19:09:34.876Z,96920.22
2023-03-22T19:12:06.912Z,96925.19
2023-03-22T19:17:11.881Z,96927.66
2023-03-22T19:19:43.042Z,96927.66
2023-03-22T19:22:16.792Z,96929.50
2023-03-22T19:24:53.208Z,96933.63
2023-03-22T19:27:26.557Z,96928.22
2023-03-22T19:30:02.143Z,96927.84
2023-03-22T19:32:34.382Z,96928.84
2023-03-22T19:35:05.483Z,96926.06
2023-03-22T19:37:36.890Z,96938.88
2023-03-22T19:41:06.124Z,96932.53
2023-03-22T19:43:03.143Z,96929.22
2023-03-22T19:45:33.991Z,96921.94
2023-03-22T19:48:04.837Z,96925.09
2023-03-22T19:50:36.264Z,96924.59
2023-03-22T19:53:40.259Z,96914.97
2023-03-22T19:56:01.505Z,96918.19
2023-03-22T19:58:32.447Z,96925.63
2023-03-22T20:01:10.451Z,96919.00
2023-03-22T20:03:42.190Z,96923.97
2023-03-22T20:06:14.515Z,96918.66
2023-03-22T20:08:45.187Z,96922.13
2023-03-22T20:11:27.619Z,96920.66
2023-03-22T20:14:03.752Z,96926.81
2023-03-22T20:16:34.711Z,96933.97
2023-03-22T20:19:06.669Z,96921.66
2023-03-22T20:21:39.004Z,96924.50
2023-03-22T20:24:10.077Z,96927.56
2023-03-22T20:26:43.624Z,96918.81
2023-03-22T20:29:14.492Z,96903.56
2023-03-22T20:31:45.445Z,96920.44
2023-03-22T20:34:16.523Z,96920.44
2023-03-22T20:36:49.071Z,96928.66
2023-03-22T20:39:20.840Z,96930.13
2023-03-22T20:41:54.814Z,96932.78
2023-03-22T20:44:26.215Z,96931.94
2023-03-22T20:46:58.138Z,96930.13
2023-03-22T20:49:29.614Z,96927.44
2023-03-22T20:52:01.159Z,96925.78
2023-03-22T20:54:31.912Z,96916.81
2023-03-22T20:57:05.400Z,96915.78
2023-03-22T20:59:37.399Z,96901.53
2023-03-22T21:02:08.804Z,96906.50
2023-03-22T21:04:40.198Z,96910.00
2023-03-22T21:07:11.414Z,96908.50
2023-03-22T21:09:44.093Z,96910.53
2023-03-22T21:12:18.955Z,96910.06
2023-03-22T21:14:49.848Z,96915.41
2023-03-22T21:17:21.635Z,96921.72
2023-03-22T21:19:52.407Z,96918.75
2023-03-22T21:22:24.479Z,96925.56
2023-03-22T21:24:55.788Z,96922.25
2023-03-22T21:27:31.167Z,96932.06
2023-03-22T21:30:03.080Z,96929.59
2023-03-22T21:32:37.371Z,96929.97
2023-03-22T21:35:08.707Z,96925.34
2023-03-22T21:37:39.850Z,96903.03
2023-03-22T21:40:12.685Z,96915.06
2023-03-22T21:42:58.348Z,96932.97
2023-03-22T21:45:34.480Z,96921.88
2023-03-22T21:48:07.378Z,96924.53
2023-03-22T21:50:38.231Z,96921.69
2023-03-22T21:53:08.981Z,96928.84
2023-03-22T21:55:39.883Z,96934.00
2023-03-22T21:58:13.672Z,96917.75
2023-03-22T22:00:45.049Z,96928.66
2023-03-22T22:03:15.895Z,96919.22
2023-03-22T22:05:52.149Z,96922.88
2023-03-22T22:08:24.144Z,96920.50
2023-03-22T22:10:58.154Z,96922.69
2023-03-22T22:13:32.335Z,96919.69
2023-03-22T22:16:05.319Z,96913.88
2023-03-22T22:18:38.599Z,96930.50
2023-03-22T22:21:12.014Z,96917.06
2023-03-22T22:23:45.951Z,96919.38
2023-03-22T22:26:19.477Z,96920.03
2023-03-22T22:28:56.345Z,96920.41
2023-03-22T22:31:31.589Z,96923.69
2023-03-22T22:34:03.238Z,96929.03
2023-03-22T22:36:34.078Z,96904.03
2023-03-22T22:39:06.622Z,96929.19
2023-03-22T22:41:37.647Z,96934.69
2023-03-22T22:44:11.419Z,96936.38
2023-03-22T22:46:42.453Z,96935.69
2023-03-22T22:49:13.390Z,96938.38
2023-03-22T22:51:44.350Z,96943.69
2023-03-22T22:54:15.870Z,96944.53
2023-03-22T22:56:47.073Z,96919.88
2023-03-22T22:59:20.567Z,96942.03
2023-03-22T23:01:51.238Z,96937.44
2023-03-22T23:04:22.140Z,96946.41
2023-03-22T23:06:53.083Z,96937.88
2023-03-22T23:09:25.429Z,96937.09
2023-03-22T23:11:57.955Z,96950.06
2023-03-22T23:14:33.323Z,96948.63
2023-03-22T23:17:03.973Z,96947.19
2023-03-22T23:19:38.529Z,96945.66
2023-03-22T23:22:14.543Z,96942.16
2023-03-22T23:24:45.864Z,96939.31
2023-03-22T23:27:16.906Z,96942.16
2023-03-22T23:29:50.540Z,96943.84
2023-03-22T23:32:22.321Z,96932.91
2023-03-22T23:34:58.139Z,96931.00
2023-03-22T23:37:31.171Z,96938.34
2023-03-22T23:40:08.720Z,96942.81
2023-03-22T23:42:42.073Z,96930.69
2023-03-22T23:45:18.226Z,96943.19
2023-03-22T23:47:49.219Z,96945.97
2023-03-22T23:50:20.103Z,96941.81
2023-03-22T23:52:51.679Z,96930.53
2023-03-22T23:55:26.615Z,96938.81
2023-03-22T23:57:58.354Z,96939.13
